Terminal Aerodrome Forecast
Issued by NWS Brownsville, TX

Home | Current Version | Previous Version | Text Only | Print | Product List | Glossary On
Versions: 1 2 3 4 5 6 7 8 9 10 11 12 13 14 15
649
FTUS44 KBRO 231120
TAFBRO
TAF
KBRO 231120Z 2312/2412 16012KT P6SM FEW020
     FM231500 16020G28KT P6SM SCT040
     FM240000 15013G18KT P6SM FEW030
     FM240200 14010KT P6SM SCT020
     FM240800 14005KT P6SM SCT015=

USA.gov is the U.S. government's official web portal to all federal, state and local government web resources and services.